sensor_id;sensor_type;location;lat;lon;timestamp;P1;durP1;ratioP1;P2;durP2;ratioP2
43803;SDS011;29430;52.924;-2.388;2023-03-24T00:03:47;10.63;;;1.08;;
43803;SDS011;29430;52.924;-2.388;2023-03-24T00:08:39;11.48;;;0.50;;
43803;SDS011;29430;52.924;-2.388;2023-03-24T00:13:32;10.77;;;1.05;;
43803;SDS011;29430;52.924;-2.388;2023-03-24T00:18:28;9.23;;;0.50;;
43803;SDS011;29430;52.924;-2.388;2023-03-24T00:23:20;7.78;;;0.50;;
43803;SDS011;29430;52.924;-2.388;2023-03-24T00:28:12;15.85;;;0.65;;
43803;SDS011;29430;52.924;-2.388;2023-03-24T00:33:04;15.07;;;0.98;;
43803;SDS011;29430;52.924;-2.388;2023-03-24T00:37:55;12.13;;;0.60;;
43803;SDS011;29430;52.924;-2.388;2023-03-24T00:42:48;11.40;;;0.90;;
43803;SDS011;29430;52.924;-2.388;2023-03-24T00:47:40;7.15;;;0.60;;
43803;SDS011;29430;52.924;-2.388;2023-03-24T00:52:35;13.40;;;0.77;;
43803;SDS011;29430;52.924;-2.388;2023-03-24T00:57:27;8.80;;;0.43;;
43803;SDS011;29430;52.924;-2.388;2023-03-24T01:02:22;11.25;;;1.00;;
43803;SDS011;29430;52.924;-2.388;2023-03-24T01:07:15;13.95;;;0.60;;
43803;SDS011;29430;52.924;-2.388;2023-03-24T01:12:08;9.52;;;0.73;;
43803;SDS011;29430;52.924;-2.388;2023-03-24T01:17:00;9.73;;;0.75;;
43803;SDS011;29430;52.924;-2.388;2023-03-24T01:21:52;10.85;;;0.82;;
43803;SDS011;29430;52.924;-2.388;2023-03-24T01:26:44;9.90;;;0.60;;
43803;SDS011;29430;52.924;-2.388;2023-03-24T01:31:36;8.10;;;0.60;;
43803;SDS011;29430;52.924;-2.388;2023-03-24T01:36:28;12.77;;;0.52;;
43803;SDS011;29430;52.924;-2.388;2023-03-24T01:41:20;10.25;;;1.65;;
43803;SDS011;29430;52.924;-2.388;2023-03-24T01:46:13;7.68;;;1.10;;
43803;SDS011;29430;52.924;-2.388;2023-03-24T01:56:10;8.57;;;0.43;;
43803;SDS011;29430;52.924;-2.388;2023-03-24T02:01:02;8.05;;;0.40;;
43803;SDS011;29430;52.924;-2.388;2023-03-24T02:05:55;7.07;;;0.50;;
43803;SDS011;29430;52.924;-2.388;2023-03-24T02:10:48;12.60;;;0.70;;
43803;SDS011;29430;52.924;-2.388;2023-03-24T02:26:39;10.20;;;0.50;;
43803;SDS011;29430;52.924;-2.388;2023-03-24T02:31:42;12.25;;;1.23;;
43803;SDS011;29430;52.924;-2.388;2023-03-24T02:37:00;10.63;;;1.40;;
43803;SDS011;29430;52.924;-2.388;2023-03-24T02:46:59;9.60;;;0.75;;
43803;SDS011;29430;52.924;-2.388;2023-03-24T02:52:20;12.02;;;0.70;;
43803;SDS011;29430;52.924;-2.388;2023-03-24T02:57:44;14.38;;;1.23;;
43803;SDS011;29430;52.924;-2.388;2023-03-24T03:02:51;11.00;;;0.60;;
43803;SDS011;29430;52.924;-2.388;2023-03-24T03:07:48;8.82;;;0.60;;
43803;SDS011;29430;52.924;-2.388;2023-03-24T03:12:41;7.38;;;0.60;;
43803;SDS011;29430;52.924;-2.388;2023-03-24T03:17:40;17.55;;;0.88;;
43803;SDS011;29430;52.924;-2.388;2023-03-24T03:22:41;14.02;;;0.77;;
43803;SDS011;29430;52.924;-2.388;2023-03-24T03:27:56;8.75;;;1.05;;
43803;SDS011;29430;52.924;-2.388;2023-03-24T03:32:57;12.48;;;0.70;;
43803;SDS011;29430;52.924;-2.388;2023-03-24T03:38:02;8.48;;;0.50;;
43803;SDS011;29430;52.924;-2.388;2023-03-24T03:43:05;8.93;;;0.47;;
43803;SDS011;29430;52.924;-2.388;2023-03-24T03:47:56;13.13;;;0.98;;
43803;SDS011;29430;52.924;-2.388;2023-03-24T03:52:48;13.13;;;0.70;;
43803;SDS011;29430;52.924;-2.388;2023-03-24T03:57:40;13.65;;;0.93;;
43803;SDS011;29430;52.924;-2.388;2023-03-24T04:02:38;10.90;;;0.50;;
43803;SDS011;29430;52.924;-2.388;2023-03-24T04:33:37;8.90;;;0.40;;
43803;SDS011;29430;52.924;-2.388;2023-03-24T04:38:31;12.77;;;0.63;;
43803;SDS011;29430;52.924;-2.388;2023-03-24T04:43:26;11.15;;;1.05;;
43803;SDS011;29430;52.924;-2.388;2023-03-24T04:48:26;9.50;;;0.80;;
43803;SDS011;29430;52.924;-2.388;2023-03-24T04:53:17;12.57;;;1.02;;
43803;SDS011;29430;52.924;-2.388;2023-03-24T04:58:09;13.23;;;0.70;;
43803;SDS011;29430;52.924;-2.388;2023-03-24T05:03:01;10.23;;;0.60;;
43803;SDS011;29430;52.924;-2.388;2023-03-24T05:07:53;4.43;;;0.30;;
43803;SDS011;29430;52.924;-2.388;2023-03-24T05:12:47;5.38;;;0.30;;
43803;SDS011;29430;52.924;-2.388;2023-03-24T05:17:39;4.38;;;0.22;;
43803;SDS011;29430;52.924;-2.388;2023-03-24T05:22:30;6.70;;;0.70;;
43803;SDS011;29430;52.924;-2.388;2023-03-24T05:27:22;1.73;;;0.20;;
43803;SDS011;29430;52.924;-2.388;2023-03-24T05:32:13;4.78;;;0.25;;
43803;SDS011;29430;52.924;-2.388;2023-03-24T05:37:05;2.35;;;0.20;;
43803;SDS011;29430;52.924;-2.388;2023-03-24T05:41:59;7.53;;;0.40;;
43803;SDS011;29430;52.924;-2.388;2023-03-24T05:46:51;7.68;;;0.25;;
43803;SDS011;29430;52.924;-2.388;2023-03-24T05:51:43;7.00;;;0.40;;
43803;SDS011;29430;52.924;-2.388;2023-03-24T05:56:34;12.40;;;0.50;;
43803;SDS011;29430;52.924;-2.388;2023-03-24T06:01:26;8.93;;;0.60;;
43803;SDS011;29430;52.924;-2.388;2023-03-24T06:06:19;6.93;;;0.40;;
43803;SDS011;29430;52.924;-2.388;2023-03-24T06:11:10;10.85;;;0.70;;
43803;SDS011;29430;52.924;-2.388;2023-03-24T06:16:02;10.68;;;1.13;;
43803;SDS011;29430;52.924;-2.388;2023-03-24T06:20:55;18.60;;;0.65;;
43803;SDS011;29430;52.924;-2.388;2023-03-24T06:25:47;17.10;;;1.58;;
43803;SDS011;29430;52.924;-2.388;2023-03-24T06:30:44;15.35;;;1.20;;
43803;SDS011;29430;52.924;-2.388;2023-03-24T06:35:37;10.68;;;0.68;;
43803;SDS011;29430;52.924;-2.388;2023-03-24T06:40:29;20.77;;;1.10;;
43803;SDS011;29430;52.924;-2.388;2023-03-24T06:45:21;12.70;;;1.40;;
43803;SDS011;29430;52.924;-2.388;2023-03-24T06:50:13;12.13;;;0.88;;
43803;SDS011;29430;52.924;-2.388;2023-03-24T06:55:05;19.60;;;1.35;;
43803;SDS011;29430;52.924;-2.388;2023-03-24T06:59:58;13.98;;;1.45;;
43803;SDS011;29430;52.924;-2.388;2023-03-24T07:04:50;10.60;;;0.88;;
43803;SDS011;29430;52.924;-2.388;2023-03-24T07:09:44;14.73;;;1.70;;
43803;SDS011;29430;52.924;-2.388;2023-03-24T07:14:35;10.15;;;0.60;;
43803;SDS011;29430;52.924;-2.388;2023-03-24T07:19:27;12.10;;;0.73;;
43803;SDS011;29430;52.924;-2.388;2023-03-24T07:24:19;11.43;;;0.55;;
43803;SDS011;29430;52.924;-2.388;2023-03-24T07:29:11;10.90;;;0.93;;
43803;SDS011;29430;52.924;-2.388;2023-03-24T07:34:03;11.02;;;1.20;;
43803;SDS011;29430;52.924;-2.388;2023-03-24T07:38:55;13.52;;;0.75;;
43803;SDS011;29430;52.924;-2.388;2023-03-24T07:43:47;14.18;;;1.00;;
43803;SDS011;29430;52.924;-2.388;2023-03-24T07:48:39;12.75;;;0.65;;
43803;SDS011;29430;52.924;-2.388;2023-03-24T07:53:31;7.82;;;0.70;;
43803;SDS011;29430;52.924;-2.388;2023-03-24T07:58:24;6.80;;;0.60;;
43803;SDS011;29430;52.924;-2.388;2023-03-24T08:03:16;9.10;;;0.80;;
43803;SDS011;29430;52.924;-2.388;2023-03-24T08:08:08;12.32;;;0.60;;
43803;SDS011;29430;52.924;-2.388;2023-03-24T08:13:00;10.30;;;0.60;;
43803;SDS011;29430;52.924;-2.388;2023-03-24T08:17:52;7.78;;;0.90;;
43803;SDS011;29430;52.924;-2.388;2023-03-24T08:22:45;6.22;;;0.50;;
43803;SDS011;29430;52.924;-2.388;2023-03-24T08:27:40;9.20;;;0.65;;
43803;SDS011;29430;52.924;-2.388;2023-03-24T08:32:35;5.68;;;0.35;;
43803;SDS011;29430;52.924;-2.388;2023-03-24T08:37:27;7.30;;;0.40;;
43803;SDS011;29430;52.924;-2.388;2023-03-24T08:42:18;4.43;;;0.38;;
43803;SDS011;29430;52.924;-2.388;2023-03-24T08:47:10;8.00;;;0.40;;
43803;SDS011;29430;52.924;-2.388;2023-03-24T08:52:03;11.00;;;0.95;;
43803;SDS011;29430;52.924;-2.388;2023-03-24T08:56:54;6.32;;;0.55;;
43803;SDS011;29430;52.924;-2.388;2023-03-24T09:01:46;5.85;;;0.75;;
43803;SDS011;29430;52.924;-2.388;2023-03-24T09:06:38;11.18;;;0.68;;
43803;SDS011;29430;52.924;-2.388;2023-03-24T09:11:30;9.45;;;0.60;;
43803;SDS011;29430;52.924;-2.388;2023-03-24T09:16:22;14.73;;;1.38;;
43803;SDS011;29430;52.924;-2.388;2023-03-24T09:21:13;12.68;;;0.77;;
43803;SDS011;29430;52.924;-2.388;2023-03-24T09:26:05;10.65;;;0.60;;
43803;SDS011;29430;52.924;-2.388;2023-03-24T09:30:58;9.23;;;0.63;;
43803;SDS011;29430;52.924;-2.388;2023-03-24T09:35:55;15.02;;;0.90;;
43803;SDS011;29430;52.924;-2.388;2023-03-24T09:40:54;12.27;;;0.90;;
43803;SDS011;29430;52.924;-2.388;2023-03-24T09:45:52;10.00;;;0.65;;
43803;SDS011;29430;52.924;-2.388;2023-03-24T09:50:50;11.00;;;0.80;;
43803;SDS011;29430;52.924;-2.388;2023-03-24T09:55:44;19.23;;;0.70;;
43803;SDS011;29430;52.924;-2.388;2023-03-24T10:00:36;6.32;;;0.80;;
43803;SDS011;29430;52.924;-2.388;2023-03-24T10:05:51;8.10;;;0.50;;
43803;SDS011;29430;52.924;-2.388;2023-03-24T10:16:03;9.43;;;0.50;;
43803;SDS011;29430;52.924;-2.388;2023-03-24T10:31:16;4.20;;;0.43;;
43803;SDS011;29430;52.924;-2.388;2023-03-24T10:36:17;5.38;;;0.50;;
43803;SDS011;29430;52.924;-2.388;2023-03-24T10:46:08;8.77;;;0.40;;
43803;SDS011;29430;52.924;-2.388;2023-03-24T10:51:02;7.50;;;0.70;;
43803;SDS011;29430;52.924;-2.388;2023-03-24T10:55:56;7.60;;;0.40;;
43803;SDS011;29430;52.924;-2.388;2023-03-24T11:00:48;8.48;;;0.55;;
43803;SDS011;29430;52.924;-2.388;2023-03-24T11:05:40;4.13;;;0.55;;
43803;SDS011;29430;52.924;-2.388;2023-03-24T11:10:34;4.38;;;0.32;;
43803;SDS011;29430;52.924;-2.388;2023-03-24T11:15:29;4.53;;;0.40;;
43803;SDS011;29430;52.924;-2.388;2023-03-24T11:25:24;6.00;;;0.52;;
43803;SDS011;29430;52.924;-2.388;2023-03-24T11:30:17;3.80;;;0.32;;
43803;SDS011;29430;52.924;-2.388;2023-03-24T11:35:10;3.90;;;0.65;;
43803;SDS011;29430;52.924;-2.388;2023-03-24T11:40:23;6.07;;;0.60;;
43803;SDS011;29430;52.924;-2.388;2023-03-24T11:50:32;6.03;;;0.30;;
43803;SDS011;29430;52.924;-2.388;2023-03-24T11:55:28;5.05;;;0.28;;
43803;SDS011;29430;52.924;-2.388;2023-03-24T12:00:29;5.40;;;0.60;;
43803;SDS011;29430;52.924;-2.388;2023-03-24T12:05:33;3.88;;;0.30;;
43803;SDS011;29430;52.924;-2.388;2023-03-24T12:15:31;3.88;;;0.70;;
43803;SDS011;29430;52.924;-2.388;2023-03-24T12:20:33;4.95;;;0.40;;
43803;SDS011;29430;52.924;-2.388;2023-03-24T12:56:00;4.82;;;0.40;;
43803;SDS011;29430;52.924;-2.388;2023-03-24T13:05:57;6.28;;;0.30;;
43803;SDS011;29430;52.924;-2.388;2023-03-24T13:11:08;4.38;;;0.30;;
43803;SDS011;29430;52.924;-2.388;2023-03-24T13:16:23;1.70;;;0.20;;
43803;SDS011;29430;52.924;-2.388;2023-03-24T13:21:23;4.15;;;0.20;;
43803;SDS011;29430;52.924;-2.388;2023-03-24T13:31:41;1.92;;;0.10;;
43803;SDS011;29430;52.924;-2.388;2023-03-24T13:41:34;4.25;;;0.30;;
43803;SDS011;29430;52.924;-2.388;2023-03-24T13:46:28;2.20;;;0.20;;
43803;SDS011;29430;52.924;-2.388;2023-03-24T13:51:30;7.43;;;0.43;;
43803;SDS011;29430;52.924;-2.388;2023-03-24T13:56:34;5.13;;;0.25;;
43803;SDS011;29430;52.924;-2.388;2023-03-24T14:06:46;4.40;;;0.30;;
43803;SDS011;29430;52.924;-2.388;2023-03-24T14:11:40;6.47;;;0.30;;
43803;SDS011;29430;52.924;-2.388;2023-03-24T14:16:35;4.65;;;0.30;;
43803;SDS011;29430;52.924;-2.388;2023-03-24T14:21:51;7.30;;;0.50;;
43803;SDS011;29430;52.924;-2.388;2023-03-24T14:26:47;6.00;;;0.40;;
43803;SDS011;29430;52.924;-2.388;2023-03-24T14:31:39;5.25;;;0.40;;
43803;SDS011;29430;52.924;-2.388;2023-03-24T14:36:32;9.75;;;0.50;;
43803;SDS011;29430;52.924;-2.388;2023-03-24T14:41:30;5.25;;;0.40;;
43803;SDS011;29430;52.924;-2.388;2023-03-24T14:46:36;6.60;;;0.38;;
43803;SDS011;29430;52.924;-2.388;2023-03-24T14:51:47;4.07;;;0.30;;
43803;SDS011;29430;52.924;-2.388;2023-03-24T14:56:41;3.78;;;0.40;;
43803;SDS011;29430;52.924;-2.388;2023-03-24T15:01:37;7.30;;;0.47;;
43803;SDS011;29430;52.924;-2.388;2023-03-24T15:06:46;9.88;;;0.50;;
43803;SDS011;29430;52.924;-2.388;2023-03-24T15:11:39;5.10;;;0.50;;
43803;SDS011;29430;52.924;-2.388;2023-03-24T15:16:33;6.63;;;0.88;;
43803;SDS011;29430;52.924;-2.388;2023-03-24T15:26:30;3.67;;;0.28;;
43803;SDS011;29430;52.924;-2.388;2023-03-24T15:31:23;5.43;;;0.30;;
43803;SDS011;29430;52.924;-2.388;2023-03-24T15:36:19;6.53;;;0.63;;
43803;SDS011;29430;52.924;-2.388;2023-03-24T15:41:13;5.90;;;0.50;;
43803;SDS011;29430;52.924;-2.388;2023-03-24T15:46:17;7.72;;;0.43;;
43803;SDS011;29430;52.924;-2.388;2023-03-24T15:56:39;4.85;;;0.40;;
43803;SDS011;29430;52.924;-2.388;2023-03-24T16:01:31;6.00;;;0.82;;
43803;SDS011;29430;52.924;-2.388;2023-03-24T16:06:32;6.45;;;0.47;;
43803;SDS011;29430;52.924;-2.388;2023-03-24T16:11:25;5.35;;;0.40;;
43803;SDS011;29430;52.924;-2.388;2023-03-24T16:16:22;4.35;;;0.30;;
43803;SDS011;29430;52.924;-2.388;2023-03-24T16:26:14;6.93;;;0.52;;
43803;SDS011;29430;52.924;-2.388;2023-03-24T16:31:18;6.82;;;0.50;;
43803;SDS011;29430;52.924;-2.388;2023-03-24T16:36:14;5.95;;;0.50;;
43803;SDS011;29430;52.924;-2.388;2023-03-24T16:41:08;8.65;;;0.90;;
43803;SDS011;29430;52.924;-2.388;2023-03-24T16:46:01;12.57;;;0.43;;
43803;SDS011;29430;52.924;-2.388;2023-03-24T16:50:55;8.65;;;0.57;;
43803;SDS011;29430;52.924;-2.388;2023-03-24T16:55:48;4.20;;;0.32;;
43803;SDS011;29430;52.924;-2.388;2023-03-24T17:00:40;3.35;;;0.30;;
43803;SDS011;29430;52.924;-2.388;2023-03-24T17:10:53;2.20;;;0.30;;
43803;SDS011;29430;52.924;-2.388;2023-03-24T17:15:47;4.05;;;0.40;;
43803;SDS011;29430;52.924;-2.388;2023-03-24T17:20:38;4.95;;;0.40;;
43803;SDS011;29430;52.924;-2.388;2023-03-24T17:25:30;10.88;;;0.68;;
43803;SDS011;29430;52.924;-2.388;2023-03-24T17:30:22;7.78;;;0.28;;
43803;SDS011;29430;52.924;-2.388;2023-03-24T17:35:17;3.63;;;0.30;;
43803;SDS011;29430;52.924;-2.388;2023-03-24T17:40:10;3.53;;;0.40;;
43803;SDS011;29430;52.924;-2.388;2023-03-24T17:45:04;6.35;;;0.57;;
43803;SDS011;29430;52.924;-2.388;2023-03-24T17:49:58;5.05;;;0.63;;
43803;SDS011;29430;52.924;-2.388;2023-03-24T17:54:50;5.75;;;0.47;;
43803;SDS011;29430;52.924;-2.388;2023-03-24T17:59:42;5.38;;;0.75;;
43803;SDS011;29430;52.924;-2.388;2023-03-24T18:04:33;7.82;;;0.73;;
43803;SDS011;29430;52.924;-2.388;2023-03-24T18:09:25;4.90;;;0.50;;
43803;SDS011;29430;52.924;-2.388;2023-03-24T18:14:17;7.70;;;0.85;;
43803;SDS011;29430;52.924;-2.388;2023-03-24T18:19:09;6.95;;;0.68;;
43803;SDS011;29430;52.924;-2.388;2023-03-24T18:24:01;9.40;;;0.40;;
43803;SDS011;29430;52.924;-2.388;2023-03-24T18:28:54;4.53;;;0.50;;
43803;SDS011;29430;52.924;-2.388;2023-03-24T18:33:46;8.25;;;0.85;;
43803;SDS011;29430;52.924;-2.388;2023-03-24T18:38:39;8.38;;;0.50;;
43803;SDS011;29430;52.924;-2.388;2023-03-24T18:43:31;7.50;;;0.70;;
43803;SDS011;29430;52.924;-2.388;2023-03-24T18:48:32;10.40;;;0.88;;
43803;SDS011;29430;52.924;-2.388;2023-03-24T18:53:25;8.88;;;0.80;;
43803;SDS011;29430;52.924;-2.388;2023-03-24T18:58:17;10.38;;;0.90;;
43803;SDS011;29430;52.924;-2.388;2023-03-24T19:03:09;7.72;;;0.73;;
43803;SDS011;29430;52.924;-2.388;2023-03-24T19:08:00;7.75;;;0.93;;
43803;SDS011;29430;52.924;-2.388;2023-03-24T19:12:57;10.95;;;0.80;;
43803;SDS011;29430;52.924;-2.388;2023-03-24T19:17:48;9.05;;;0.40;;
43803;SDS011;29430;52.924;-2.388;2023-03-24T19:22:40;5.38;;;0.60;;
43803;SDS011;29430;52.924;-2.388;2023-03-24T19:27:32;8.95;;;0.68;;
43803;SDS011;29430;52.924;-2.388;2023-03-24T19:32:24;4.90;;;0.73;;
43803;SDS011;29430;52.924;-2.388;2023-03-24T19:37:15;9.73;;;0.77;;
43803;SDS011;29430;52.924;-2.388;2023-03-24T19:42:07;6.88;;;0.50;;
43803;SDS011;29430;52.924;-2.388;2023-03-24T19:46:59;11.55;;;1.30;;
43803;SDS011;29430;52.924;-2.388;2023-03-24T19:51:51;6.10;;;1.25;;
43803;SDS011;29430;52.924;-2.388;2023-03-24T19:56:42;7.50;;;0.60;;
43803;SDS011;29430;52.924;-2.388;2023-03-24T20:01:34;10.02;;;0.55;;
43803;SDS011;29430;52.924;-2.388;2023-03-24T20:06:27;6.55;;;0.30;;
43803;SDS011;29430;52.924;-2.388;2023-03-24T20:11:19;7.15;;;0.95;;
43803;SDS011;29430;52.924;-2.388;2023-03-24T20:16:10;3.38;;;0.40;;
43803;SDS011;29430;52.924;-2.388;2023-03-24T20:21:02;10.23;;;0.40;;
43803;SDS011;29430;52.924;-2.388;2023-03-24T20:25:59;7.20;;;0.40;;
43803;SDS011;29430;52.924;-2.388;2023-03-24T20:30:56;7.18;;;0.55;;
43803;SDS011;29430;52.924;-2.388;2023-03-24T20:35:52;7.45;;;0.45;;
43803;SDS011;29430;52.924;-2.388;2023-03-24T20:40:45;7.22;;;0.52;;
43803;SDS011;29430;52.924;-2.388;2023-03-24T20:45:38;7.10;;;1.05;;
43803;SDS011;29430;52.924;-2.388;2023-03-24T20:50:30;8.07;;;0.50;;
43803;SDS011;29430;52.924;-2.388;2023-03-24T20:55:22;7.38;;;0.70;;
43803;SDS011;29430;52.924;-2.388;2023-03-24T21:00:14;12.13;;;0.60;;
43803;SDS011;29430;52.924;-2.388;2023-03-24T21:05:06;6.95;;;0.43;;
43803;SDS011;29430;52.924;-2.388;2023-03-24T21:09:58;6.85;;;0.40;;
43803;SDS011;29430;52.924;-2.388;2023-03-24T21:14:49;5.80;;;0.20;;
43803;SDS011;29430;52.924;-2.388;2023-03-24T21:19:41;1.88;;;0.10;;
43803;SDS011;29430;52.924;-2.388;2023-03-24T21:24:37;1.95;;;0.52;;
43803;SDS011;29430;52.924;-2.388;2023-03-24T21:29:28;1.30;;;0.10;;
43803;SDS011;29430;52.924;-2.388;2023-03-24T21:34:20;1.70;;;0.00;;
43803;SDS011;29430;52.924;-2.388;2023-03-24T21:39:12;1.45;;;0.10;;
43803;SDS011;29430;52.924;-2.388;2023-03-24T21:44:04;3.60;;;0.20;;
43803;SDS011;29430;52.924;-2.388;2023-03-24T21:48:58;3.15;;;0.10;;
43803;SDS011;29430;52.924;-2.388;2023-03-24T21:53:51;3.97;;;0.57;;
43803;SDS011;29430;52.924;-2.388;2023-03-24T21:58:46;3.33;;;0.20;;
43803;SDS011;29430;52.924;-2.388;2023-03-24T22:03:38;4.43;;;0.30;;
43803;SDS011;29430;52.924;-2.388;2023-03-24T22:08:30;3.38;;;0.20;;
43803;SDS011;29430;52.924;-2.388;2023-03-24T22:13:31;6.68;;;0.65;;
43803;SDS011;29430;52.924;-2.388;2023-03-24T22:18:24;5.30;;;0.30;;
43803;SDS011;29430;52.924;-2.388;2023-03-24T22:23:17;6.93;;;0.57;;
43803;SDS011;29430;52.924;-2.388;2023-03-24T22:28:10;9.52;;;0.52;;
43803;SDS011;29430;52.924;-2.388;2023-03-24T22:33:01;6.65;;;0.50;;
43803;SDS011;29430;52.924;-2.388;2023-03-24T22:37:53;7.43;;;0.73;;
43803;SDS011;29430;52.924;-2.388;2023-03-24T22:42:45;12.35;;;0.70;;
43803;SDS011;29430;52.924;-2.388;2023-03-24T22:47:36;9.30;;;0.70;;
43803;SDS011;29430;52.924;-2.388;2023-03-24T22:52:28;9.68;;;0.70;;
43803;SDS011;29430;52.924;-2.388;2023-03-24T22:57:20;13.10;;;2.08;;
43803;SDS011;29430;52.924;-2.388;2023-03-24T23:02:13;9.27;;;0.50;;
43803;SDS011;29430;52.924;-2.388;2023-03-24T23:07:05;7.45;;;0.50;;
43803;SDS011;29430;52.924;-2.388;2023-03-24T23:11:57;5.63;;;0.50;;
43803;SDS011;29430;52.924;-2.388;2023-03-24T23:16:49;7.40;;;0.40;;
43803;SDS011;29430;52.924;-2.388;2023-03-24T23:21:42;7.13;;;0.43;;
43803;SDS011;29430;52.924;-2.388;2023-03-24T23:26:33;8.27;;;0.50;;
43803;SDS011;29430;52.924;-2.388;2023-03-24T23:31:26;7.63;;;0.50;;
43803;SDS011;29430;52.924;-2.388;2023-03-24T23:36:18;9.07;;;0.47;;
43803;SDS011;29430;52.924;-2.388;2023-03-24T23:41:10;7.88;;;0.40;;
43803;SDS011;29430;52.924;-2.388;2023-03-24T23:46:02;6.30;;;0.40;;
43803;SDS011;29430;52.924;-2.388;2023-03-24T23:50:54;5.85;;;0.52;;
43803;SDS011;29430;52.924;-2.388;2023-03-24T23:55:53;6.97;;;0.30;;
